sensor_id;sensor_type;location;lat;lon;timestamp;P1;durP1;ratioP1;P2;durP2;ratioP2
69795;SDS011;57073;45.650;9.612;2023-04-21T00:02:40;1.10;;;0.40;;
69795;SDS011;57073;45.650;9.612;2023-04-21T00:07:40;1.10;;;0.50;;
69795;SDS011;57073;45.650;9.612;2023-04-21T00:12:41;1.05;;;0.50;;
69795;SDS011;57073;45.650;9.612;2023-04-21T00:17:41;1.00;;;0.47;;
69795;SDS011;57073;45.650;9.612;2023-04-21T00:22:41;2.30;;;1.03;;
69795;SDS011;57073;45.650;9.612;2023-04-21T00:27:42;5.23;;;1.40;;
69795;SDS011;57073;45.650;9.612;2023-04-21T00:32:42;2.50;;;1.07;;
69795;SDS011;57073;45.650;9.612;2023-04-21T00:37:43;2.70;;;0.77;;
69795;SDS011;57073;45.650;9.612;2023-04-21T00:42:44;1.93;;;0.43;;
69795;SDS011;57073;45.650;9.612;2023-04-21T00:47:45;1.00;;;0.45;;
69795;SDS011;57073;45.650;9.612;2023-04-21T00:52:45;2.40;;;0.53;;
69795;SDS011;57073;45.650;9.612;2023-04-21T00:57:46;1.73;;;0.50;;
69795;SDS011;57073;45.650;9.612;2023-04-21T01:02:48;1.50;;;0.60;;
69795;SDS011;57073;45.650;9.612;2023-04-21T01:07:48;2.80;;;1.17;;
69795;SDS011;57073;45.650;9.612;2023-04-21T01:12:49;4.97;;;1.80;;
69795;SDS011;57073;45.650;9.612;2023-04-21T01:17:49;4.23;;;1.60;;
69795;SDS011;57073;45.650;9.612;2023-04-21T01:22:53;4.22;;;1.88;;
69795;SDS011;57073;45.650;9.612;2023-04-21T01:27:53;2.93;;;1.20;;
69795;SDS011;57073;45.650;9.612;2023-04-21T01:32:53;2.83;;;1.07;;
69795;SDS011;57073;45.650;9.612;2023-04-21T01:37:54;3.40;;;0.60;;
69795;SDS011;57073;45.650;9.612;2023-04-21T01:42:54;0.93;;;0.30;;
69795;SDS011;57073;45.650;9.612;2023-04-21T01:47:55;1.90;;;0.60;;
69795;SDS011;57073;45.650;9.612;2023-04-21T01:52:55;1.90;;;0.50;;
69795;SDS011;57073;45.650;9.612;2023-04-21T01:57:55;2.73;;;1.10;;
69795;SDS011;57073;45.650;9.612;2023-04-21T02:02:58;3.07;;;1.43;;
69795;SDS011;57073;45.650;9.612;2023-04-21T02:07:58;4.77;;;1.63;;
69795;SDS011;57073;45.650;9.612;2023-04-21T02:12:58;5.27;;;1.57;;
69795;SDS011;57073;45.650;9.612;2023-04-21T02:18:00;4.10;;;1.48;;
69795;SDS011;57073;45.650;9.612;2023-04-21T02:23:00;2.90;;;1.00;;
69795;SDS011;57073;45.650;9.612;2023-04-21T02:28:00;1.60;;;0.70;;
69795;SDS011;57073;45.650;9.612;2023-04-21T02:33:01;1.40;;;0.60;;
69795;SDS011;57073;45.650;9.612;2023-04-21T02:38:01;2.13;;;0.50;;
69795;SDS011;57073;45.650;9.612;2023-04-21T02:43:06;0.80;;;0.40;;
69795;SDS011;57073;45.650;9.612;2023-04-21T02:48:06;2.30;;;0.87;;
69795;SDS011;57073;45.650;9.612;2023-04-21T02:53:07;1.73;;;0.70;;
69795;SDS011;57073;45.650;9.612;2023-04-21T02:58:07;1.93;;;0.80;;
69795;SDS011;57073;45.650;9.612;2023-04-21T03:03:07;1.47;;;0.70;;
69795;SDS011;57073;45.650;9.612;2023-04-21T03:08:08;1.67;;;0.93;;
69795;SDS011;57073;45.650;9.612;2023-04-21T03:13:08;1.58;;;0.80;;
69795;SDS011;57073;45.650;9.612;2023-04-21T03:18:09;2.23;;;0.73;;
69795;SDS011;57073;45.650;9.612;2023-04-21T03:23:10;1.40;;;0.70;;
69795;SDS011;57073;45.650;9.612;2023-04-21T03:28:10;2.07;;;0.87;;
69795;SDS011;57073;45.650;9.612;2023-04-21T03:33:10;1.40;;;0.60;;
69795;SDS011;57073;45.650;9.612;2023-04-21T03:38:11;1.40;;;0.50;;
69795;SDS011;57073;45.650;9.612;2023-04-21T03:43:11;1.27;;;0.40;;
69795;SDS011;57073;45.650;9.612;2023-04-21T03:48:11;1.20;;;0.53;;
69795;SDS011;57073;45.650;9.612;2023-04-21T03:53:12;1.73;;;0.60;;
69795;SDS011;57073;45.650;9.612;2023-04-21T03:58:12;1.80;;;0.73;;
69795;SDS011;57073;45.650;9.612;2023-04-21T04:03:13;1.17;;;0.50;;
69795;SDS011;57073;45.650;9.612;2023-04-21T04:08:13;1.93;;;0.80;;
69795;SDS011;57073;45.650;9.612;2023-04-21T04:13:13;1.47;;;0.57;;
69795;SDS011;57073;45.650;9.612;2023-04-21T04:18:14;1.92;;;0.40;;
69795;SDS011;57073;45.650;9.612;2023-04-21T04:23:15;1.17;;;0.30;;
69795;SDS011;57073;45.650;9.612;2023-04-21T04:28:15;0.77;;;0.27;;
69795;SDS011;57073;45.650;9.612;2023-04-21T04:33:15;1.50;;;0.30;;
69795;SDS011;57073;45.650;9.612;2023-04-21T04:38:16;0.60;;;0.30;;
69795;SDS011;57073;45.650;9.612;2023-04-21T04:43:16;0.80;;;0.30;;
69795;SDS011;57073;45.650;9.612;2023-04-21T04:48:16;2.33;;;0.60;;
69795;SDS011;57073;45.650;9.612;2023-04-21T04:53:17;2.40;;;0.80;;
69795;SDS011;57073;45.650;9.612;2023-04-21T04:58:17;1.63;;;0.77;;
69795;SDS011;57073;45.650;9.612;2023-04-21T05:03:18;1.40;;;0.60;;
69795;SDS011;57073;45.650;9.612;2023-04-21T05:08:18;2.53;;;1.00;;
69795;SDS011;57073;45.650;9.612;2023-04-21T05:13:18;1.70;;;0.80;;
69795;SDS011;57073;45.650;9.612;2023-04-21T05:18:18;3.57;;;0.70;;
69795;SDS011;57073;45.650;9.612;2023-04-21T05:23:19;2.37;;;1.13;;
69795;SDS011;57073;45.650;9.612;2023-04-21T05:28:19;1.50;;;0.80;;
69795;SDS011;57073;45.650;9.612;2023-04-21T05:33:20;1.40;;;0.50;;
69795;SDS011;57073;45.650;9.612;2023-04-21T05:38:20;1.90;;;0.80;;
69795;SDS011;57073;45.650;9.612;2023-04-21T05:43:21;1.40;;;0.40;;
69795;SDS011;57073;45.650;9.612;2023-04-21T05:48:22;3.70;;;0.77;;
69795;SDS011;57073;45.650;9.612;2023-04-21T05:53:23;1.98;;;0.68;;
69795;SDS011;57073;45.650;9.612;2023-04-21T05:58:23;3.80;;;0.63;;
69795;SDS011;57073;45.650;9.612;2023-04-21T06:03:24;1.10;;;0.50;;
69795;SDS011;57073;45.650;9.612;2023-04-21T06:08:24;1.90;;;0.90;;
69795;SDS011;57073;45.650;9.612;2023-04-21T06:13:25;2.27;;;0.63;;
69795;SDS011;57073;45.650;9.612;2023-04-21T06:18:26;1.95;;;0.70;;
69795;SDS011;57073;45.650;9.612;2023-04-21T06:23:27;2.27;;;0.73;;
69795;SDS011;57073;45.650;9.612;2023-04-21T06:28:27;3.27;;;1.00;;
69795;SDS011;57073;45.650;9.612;2023-04-21T06:33:28;3.33;;;1.30;;
69795;SDS011;57073;45.650;9.612;2023-04-21T06:38:28;3.33;;;1.55;;
69795;SDS011;57073;45.650;9.612;2023-04-21T06:43:29;2.83;;;1.70;;
69795;SDS011;57073;45.650;9.612;2023-04-21T06:48:29;3.53;;;1.40;;
69795;SDS011;57073;45.650;9.612;2023-04-21T06:53:30;2.47;;;1.23;;
69795;SDS011;57073;45.650;9.612;2023-04-21T06:58:30;2.17;;;1.00;;
69795;SDS011;57073;45.650;9.612;2023-04-21T07:03:30;2.07;;;1.10;;
69795;SDS011;57073;45.650;9.612;2023-04-21T07:08:31;3.37;;;1.10;;
69795;SDS011;57073;45.650;9.612;2023-04-21T07:13:31;2.75;;;1.20;;
69795;SDS011;57073;45.650;9.612;2023-04-21T07:18:31;3.33;;;1.60;;
69795;SDS011;57073;45.650;9.612;2023-04-21T07:23:33;2.70;;;1.02;;
69795;SDS011;57073;45.650;9.612;2023-04-21T07:28:33;3.00;;;1.40;;
69795;SDS011;57073;45.650;9.612;2023-04-21T07:33:34;2.60;;;1.23;;
69795;SDS011;57073;45.650;9.612;2023-04-21T07:38:34;2.77;;;1.33;;
69795;SDS011;57073;45.650;9.612;2023-04-21T07:43:35;3.27;;;1.60;;
69795;SDS011;57073;45.650;9.612;2023-04-21T07:48:35;3.43;;;1.10;;
69795;SDS011;57073;45.650;9.612;2023-04-21T07:53:35;1.73;;;1.13;;
69795;SDS011;57073;45.650;9.612;2023-04-21T07:58:35;2.27;;;0.90;;
69795;SDS011;57073;45.650;9.612;2023-04-21T08:03:36;1.77;;;1.00;;
69795;SDS011;57073;45.650;9.612;2023-04-21T08:08:36;3.50;;;1.10;;
69795;SDS011;57073;45.650;9.612;2023-04-21T08:13:36;1.80;;;1.00;;
69795;SDS011;57073;45.650;9.612;2023-04-21T08:18:37;2.20;;;0.90;;
69795;SDS011;57073;45.650;9.612;2023-04-21T08:23:37;3.03;;;1.23;;
69795;SDS011;57073;45.650;9.612;2023-04-21T08:28:38;2.63;;;1.37;;
69795;SDS011;57073;45.650;9.612;2023-04-21T08:33:38;4.63;;;1.40;;
69795;SDS011;57073;45.650;9.612;2023-04-21T08:38:41;2.77;;;1.50;;
69795;SDS011;57073;45.650;9.612;2023-04-21T08:43:42;5.30;;;1.50;;
69795;SDS011;57073;45.650;9.612;2023-04-21T08:48:42;3.27;;;1.73;;
69795;SDS011;57073;45.650;9.612;2023-04-21T08:53:42;6.67;;;2.20;;
69795;SDS011;57073;45.650;9.612;2023-04-21T08:58:43;4.93;;;2.15;;
69795;SDS011;57073;45.650;9.612;2023-04-21T09:03:43;4.87;;;2.40;;
69795;SDS011;57073;45.650;9.612;2023-04-21T09:08:53;8.30;;;2.67;;
69795;SDS011;57073;45.650;9.612;2023-04-21T09:13:55;6.97;;;3.10;;
69795;SDS011;57073;45.650;9.612;2023-04-21T09:18:56;6.20;;;2.90;;
69795;SDS011;57073;45.650;9.612;2023-04-21T09:24:00;5.43;;;2.90;;
69795;SDS011;57073;45.650;9.612;2023-04-21T09:29:04;5.22;;;2.90;;
69795;SDS011;57073;45.650;9.612;2023-04-21T09:34:16;4.90;;;2.83;;
69795;SDS011;57073;45.650;9.612;2023-04-21T09:39:23;4.23;;;2.60;;
69795;SDS011;57073;45.650;9.612;2023-04-21T09:44:24;5.67;;;2.90;;
69795;SDS011;57073;45.650;9.612;2023-04-21T09:49:25;5.55;;;2.88;;
69795;SDS011;57073;45.650;9.612;2023-04-21T09:54:29;5.45;;;2.83;;
69795;SDS011;57073;45.650;9.612;2023-04-21T09:59:33;5.20;;;3.00;;
69795;SDS011;57073;45.650;9.612;2023-04-21T10:04:36;7.07;;;3.03;;
69795;SDS011;57073;45.650;9.612;2023-04-21T10:09:42;6.70;;;3.00;;
69795;SDS011;57073;45.650;9.612;2023-04-21T10:14:45;6.60;;;3.40;;
69795;SDS011;57073;45.650;9.612;2023-04-21T10:19:51;6.20;;;3.05;;
69795;SDS011;57073;45.650;9.612;2023-04-21T10:24:57;7.03;;;3.37;;
69795;SDS011;57073;45.650;9.612;2023-04-21T10:29:59;6.80;;;3.00;;
69795;SDS011;57073;45.650;9.612;2023-04-21T10:35:00;6.20;;;3.13;;
69795;SDS011;57073;45.650;9.612;2023-04-21T10:40:01;7.20;;;3.60;;
69795;SDS011;57073;45.650;9.612;2023-04-21T10:45:05;6.65;;;3.50;;
69795;SDS011;57073;45.650;9.612;2023-04-21T10:50:11;6.80;;;3.40;;
69795;SDS011;57073;45.650;9.612;2023-04-21T10:55:12;6.33;;;3.43;;
69795;SDS011;57073;45.650;9.612;2023-04-21T11:00:15;7.53;;;3.58;;
69795;SDS011;57073;45.650;9.612;2023-04-21T11:05:18;9.73;;;4.27;;
69795;SDS011;57073;45.650;9.612;2023-04-21T11:10:18;8.03;;;4.40;;
69795;SDS011;57073;45.650;9.612;2023-04-21T11:15:19;7.17;;;4.63;;
69795;SDS011;57073;45.650;9.612;2023-04-21T11:20:20;7.97;;;3.97;;
69795;SDS011;57073;45.650;9.612;2023-04-21T11:25:21;8.20;;;4.10;;
69795;SDS011;57073;45.650;9.612;2023-04-21T11:30:31;7.07;;;3.67;;
69795;SDS011;57073;45.650;9.612;2023-04-21T11:35:32;8.07;;;3.80;;
69795;SDS011;57073;45.650;9.612;2023-04-21T11:40:46;5.90;;;3.67;;
69795;SDS011;57073;45.650;9.612;2023-04-21T11:45:48;5.37;;;3.23;;
69795;SDS011;57073;45.650;9.612;2023-04-21T11:50:49;5.32;;;3.20;;
69795;SDS011;57073;45.650;9.612;2023-04-21T11:55:50;6.20;;;3.30;;
69795;SDS011;57073;45.650;9.612;2023-04-21T12:00:50;5.43;;;3.57;;
69795;SDS011;57073;45.650;9.612;2023-04-21T12:05:54;5.10;;;3.20;;
69795;SDS011;57073;45.650;9.612;2023-04-21T12:10:56;7.57;;;3.80;;
69795;SDS011;57073;45.650;9.612;2023-04-21T12:16:01;8.27;;;3.87;;
69795;SDS011;57073;45.650;9.612;2023-04-21T12:21:02;7.43;;;4.20;;
69795;SDS011;57073;45.650;9.612;2023-04-21T12:26:02;8.53;;;4.00;;
69795;SDS011;57073;45.650;9.612;2023-04-21T12:31:03;6.00;;;3.30;;
69795;SDS011;57073;45.650;9.612;2023-04-21T12:36:03;8.43;;;4.03;;
69795;SDS011;57073;45.650;9.612;2023-04-21T12:41:04;7.23;;;4.33;;
69795;SDS011;57073;45.650;9.612;2023-04-21T12:46:04;8.43;;;4.00;;
69795;SDS011;57073;45.650;9.612;2023-04-21T12:51:05;8.47;;;4.10;;
69795;SDS011;57073;45.650;9.612;2023-04-21T12:56:05;7.83;;;4.50;;
69795;SDS011;57073;45.650;9.612;2023-04-21T13:01:06;7.90;;;4.27;;
69795;SDS011;57073;45.650;9.612;2023-04-21T13:06:06;6.03;;;3.90;;
69795;SDS011;57073;45.650;9.612;2023-04-21T13:11:07;8.55;;;4.28;;
69795;SDS011;57073;45.650;9.612;2023-04-21T13:16:08;8.38;;;4.30;;
69795;SDS011;57073;45.650;9.612;2023-04-21T13:21:09;7.83;;;4.10;;
69795;SDS011;57073;45.650;9.612;2023-04-21T13:26:09;7.43;;;4.47;;
69795;SDS011;57073;45.650;9.612;2023-04-21T13:31:09;8.13;;;4.47;;
69795;SDS011;57073;45.650;9.612;2023-04-21T13:36:10;7.00;;;4.07;;
69795;SDS011;57073;45.650;9.612;2023-04-21T13:41:11;7.10;;;4.47;;
69795;SDS011;57073;45.650;9.612;2023-04-21T13:46:11;6.50;;;4.25;;
69795;SDS011;57073;45.650;9.612;2023-04-21T13:51:13;6.70;;;3.83;;
69795;SDS011;57073;45.650;9.612;2023-04-21T13:56:14;6.97;;;4.10;;
69795;SDS011;57073;45.650;9.612;2023-04-21T14:01:15;7.47;;;4.80;;
69795;SDS011;57073;45.650;9.612;2023-04-21T14:06:15;8.40;;;4.70;;
69795;SDS011;57073;45.650;9.612;2023-04-21T14:11:16;6.90;;;4.17;;
69795;SDS011;57073;45.650;9.612;2023-04-21T14:16:16;7.40;;;4.13;;
69795;SDS011;57073;45.650;9.612;2023-04-21T14:21:17;7.25;;;4.65;;
69795;SDS011;57073;45.650;9.612;2023-04-21T14:26:17;7.17;;;4.03;;
69795;SDS011;57073;45.650;9.612;2023-04-21T14:31:17;7.27;;;4.03;;
69795;SDS011;57073;45.650;9.612;2023-04-21T14:36:18;7.23;;;3.87;;
69795;SDS011;57073;45.650;9.612;2023-04-21T14:41:19;7.17;;;4.30;;
69795;SDS011;57073;45.650;9.612;2023-04-21T14:46:20;6.83;;;3.77;;
69795;SDS011;57073;45.650;9.612;2023-04-21T14:51:20;7.63;;;3.93;;
69795;SDS011;57073;45.650;9.612;2023-04-21T14:56:21;8.53;;;4.33;;
69795;SDS011;57073;45.650;9.612;2023-04-21T15:01:21;5.93;;;3.90;;
69795;SDS011;57073;45.650;9.612;2023-04-21T15:06:22;6.57;;;4.10;;
69795;SDS011;57073;45.650;9.612;2023-04-21T15:11:22;8.07;;;4.47;;
69795;SDS011;57073;45.650;9.612;2023-04-21T15:16:23;7.87;;;4.90;;
69795;SDS011;57073;45.650;9.612;2023-04-21T15:21:23;8.53;;;5.10;;
69795;SDS011;57073;45.650;9.612;2023-04-21T15:26:24;7.67;;;4.97;;
69795;SDS011;57073;45.650;9.612;2023-04-21T15:31:24;7.60;;;4.63;;
69795;SDS011;57073;45.650;9.612;2023-04-21T15:36:24;8.60;;;5.53;;
69795;SDS011;57073;45.650;9.612;2023-04-21T15:41:26;10.65;;;5.88;;
69795;SDS011;57073;45.650;9.612;2023-04-21T15:46:28;8.13;;;5.30;;
69795;SDS011;57073;45.650;9.612;2023-04-21T15:51:28;9.43;;;5.33;;
69795;SDS011;57073;45.650;9.612;2023-04-21T15:56:29;11.00;;;5.60;;
69795;SDS011;57073;45.650;9.612;2023-04-21T16:01:29;9.27;;;5.50;;
69795;SDS011;57073;45.650;9.612;2023-04-21T16:06:29;7.77;;;5.10;;
69795;SDS011;57073;45.650;9.612;2023-04-21T16:11:30;7.97;;;5.00;;
69795;SDS011;57073;45.650;9.612;2023-04-21T16:16:30;8.77;;;5.23;;
69795;SDS011;57073;45.650;9.612;2023-04-21T16:21:31;8.90;;;5.17;;
69795;SDS011;57073;45.650;9.612;2023-04-21T16:26:31;7.33;;;5.07;;
69795;SDS011;57073;45.650;9.612;2023-04-21T16:31:32;14.75;;;9.00;;
69795;SDS011;57073;45.650;9.612;2023-04-21T16:36:32;10.40;;;6.87;;
69795;SDS011;57073;45.650;9.612;2023-04-21T16:41:33;11.23;;;7.23;;
69795;SDS011;57073;45.650;9.612;2023-04-21T16:46:33;8.17;;;5.30;;
69795;SDS011;57073;45.650;9.612;2023-04-21T16:51:33;19.67;;;13.00;;
69795;SDS011;57073;45.650;9.612;2023-04-21T16:56:34;11.80;;;6.20;;
69795;SDS011;57073;45.650;9.612;2023-04-21T17:01:34;9.40;;;5.80;;
69795;SDS011;57073;45.650;9.612;2023-04-21T17:06:34;8.03;;;5.37;;
69795;SDS011;57073;45.650;9.612;2023-04-21T17:11:35;8.40;;;6.00;;
69795;SDS011;57073;45.650;9.612;2023-04-21T17:16:35;9.87;;;5.77;;
69795;SDS011;57073;45.650;9.612;2023-04-21T17:21:35;8.47;;;5.93;;
69795;SDS011;57073;45.650;9.612;2023-04-21T17:26:36;9.30;;;5.83;;
69795;SDS011;57073;45.650;9.612;2023-04-21T17:31:36;8.47;;;5.33;;
69795;SDS011;57073;45.650;9.612;2023-04-21T17:36:36;7.40;;;4.93;;
69795;SDS011;57073;45.650;9.612;2023-04-21T17:41:39;10.98;;;5.40;;
69795;SDS011;57073;45.650;9.612;2023-04-21T17:46:40;7.47;;;4.00;;
69795;SDS011;57073;45.650;9.612;2023-04-21T17:51:42;8.63;;;3.85;;
69795;SDS011;57073;45.650;9.612;2023-04-21T17:56:43;7.30;;;3.90;;
69795;SDS011;57073;45.650;9.612;2023-04-21T18:01:46;7.70;;;3.67;;
69795;SDS011;57073;45.650;9.612;2023-04-21T18:06:47;7.70;;;3.63;;
69795;SDS011;57073;45.650;9.612;2023-04-21T18:11:47;6.65;;;3.40;;
69795;SDS011;57073;45.650;9.612;2023-04-21T18:16:47;6.53;;;3.90;;
69795;SDS011;57073;45.650;9.612;2023-04-21T18:21:48;6.07;;;3.80;;
69795;SDS011;57073;45.650;9.612;2023-04-21T18:26:48;7.23;;;4.27;;
69795;SDS011;57073;45.650;9.612;2023-04-21T18:31:50;5.73;;;4.03;;
69795;SDS011;57073;45.650;9.612;2023-04-21T18:36:50;7.60;;;4.47;;
69795;SDS011;57073;45.650;9.612;2023-04-21T18:41:51;8.23;;;5.27;;
69795;SDS011;57073;45.650;9.612;2023-04-21T18:46:51;6.57;;;4.57;;
69795;SDS011;57073;45.650;9.612;2023-04-21T18:51:51;7.07;;;4.70;;
69795;SDS011;57073;45.650;9.612;2023-04-21T18:56:52;9.17;;;5.37;;
69795;SDS011;57073;45.650;9.612;2023-04-21T19:01:52;15.37;;;9.43;;
69795;SDS011;57073;45.650;9.612;2023-04-21T19:06:53;9.53;;;6.50;;
69795;SDS011;57073;45.650;9.612;2023-04-21T19:11:53;7.13;;;3.53;;
69795;SDS011;57073;45.650;9.612;2023-04-21T19:16:54;5.10;;;3.33;;
69795;SDS011;57073;45.650;9.612;2023-04-21T19:21:54;4.57;;;3.10;;
69795;SDS011;57073;45.650;9.612;2023-04-21T19:26:55;6.35;;;3.05;;
69795;SDS011;57073;45.650;9.612;2023-04-21T19:31:57;8.30;;;4.70;;
69795;SDS011;57073;45.650;9.612;2023-04-21T19:36:58;8.32;;;4.97;;
69795;SDS011;57073;45.650;9.612;2023-04-21T19:41:58;9.87;;;5.10;;
69795;SDS011;57073;45.650;9.612;2023-04-21T19:46:58;9.77;;;5.80;;
69795;SDS011;57073;45.650;9.612;2023-04-21T19:51:59;9.23;;;5.97;;
69795;SDS011;57073;45.650;9.612;2023-04-21T19:57:00;10.33;;;5.73;;
69795;SDS011;57073;45.650;9.612;2023-04-21T20:02:01;10.82;;;5.80;;
69795;SDS011;57073;45.650;9.612;2023-04-21T20:07:01;9.77;;;5.20;;
69795;SDS011;57073;45.650;9.612;2023-04-21T20:12:02;9.00;;;5.20;;
69795;SDS011;57073;45.650;9.612;2023-04-21T20:17:02;9.90;;;5.50;;
69795;SDS011;57073;45.650;9.612;2023-04-21T20:22:03;8.60;;;5.17;;
69795;SDS011;57073;45.650;9.612;2023-04-21T20:27:03;9.13;;;5.13;;
69795;SDS011;57073;45.650;9.612;2023-04-21T20:32:05;8.88;;;4.80;;
69795;SDS011;57073;45.650;9.612;2023-04-21T20:37:05;8.53;;;5.07;;
69795;SDS011;57073;45.650;9.612;2023-04-21T20:42:06;8.07;;;4.83;;
69795;SDS011;57073;45.650;9.612;2023-04-21T20:47:09;9.50;;;5.00;;
69795;SDS011;57073;45.650;9.612;2023-04-21T20:52:10;11.05;;;5.53;;
69795;SDS011;57073;45.650;9.612;2023-04-21T20:57:10;10.83;;;5.60;;
69795;SDS011;57073;45.650;9.612;2023-04-21T21:02:11;9.20;;;5.10;;
69795;SDS011;57073;45.650;9.612;2023-04-21T21:07:11;7.63;;;5.03;;
69795;SDS011;57073;45.650;9.612;2023-04-21T21:12:12;9.40;;;4.82;;
69795;SDS011;57073;45.650;9.612;2023-04-21T21:17:12;7.90;;;3.90;;
69795;SDS011;57073;45.650;9.612;2023-04-21T21:22:15;7.03;;;4.03;;
69795;SDS011;57073;45.650;9.612;2023-04-21T21:27:15;6.43;;;3.83;;
69795;SDS011;57073;45.650;9.612;2023-04-21T21:32:16;5.83;;;3.87;;
69795;SDS011;57073;45.650;9.612;2023-04-21T21:37:16;6.90;;;3.77;;
69795;SDS011;57073;45.650;9.612;2023-04-21T21:42:17;6.97;;;3.33;;
69795;SDS011;57073;45.650;9.612;2023-04-21T21:47:18;7.10;;;3.50;;
69795;SDS011;57073;45.650;9.612;2023-04-21T21:52:19;5.88;;;3.28;;
69795;SDS011;57073;45.650;9.612;2023-04-21T21:57:20;5.80;;;3.30;;
69795;SDS011;57073;45.650;9.612;2023-04-21T22:02:21;5.88;;;3.25;;
69795;SDS011;57073;45.650;9.612;2023-04-21T22:07:21;6.70;;;3.13;;
69795;SDS011;57073;45.650;9.612;2023-04-21T22:12:24;5.60;;;3.37;;
69795;SDS011;57073;45.650;9.612;2023-04-21T22:17:25;5.10;;;2.90;;
69795;SDS011;57073;45.650;9.612;2023-04-21T22:22:26;5.72;;;3.13;;
69795;SDS011;57073;45.650;9.612;2023-04-21T22:27:27;7.73;;;3.40;;
69795;SDS011;57073;45.650;9.612;2023-04-21T22:32:30;5.97;;;2.90;;
69795;SDS011;57073;45.650;9.612;2023-04-21T22:37:31;4.83;;;3.13;;
69795;SDS011;57073;45.650;9.612;2023-04-21T22:42:31;5.23;;;2.80;;
69795;SDS011;57073;45.650;9.612;2023-04-21T22:47:31;5.40;;;2.73;;
69795;SDS011;57073;45.650;9.612;2023-04-21T22:52:32;4.60;;;2.60;;
69795;SDS011;57073;45.650;9.612;2023-04-21T22:57:33;7.20;;;2.70;;
69795;SDS011;57073;45.650;9.612;2023-04-21T23:02:34;4.60;;;2.27;;
69795;SDS011;57073;45.650;9.612;2023-04-21T23:07:35;6.50;;;3.00;;
69795;SDS011;57073;45.650;9.612;2023-04-21T23:12:35;4.90;;;2.33;;
69795;SDS011;57073;45.650;9.612;2023-04-21T23:17:36;3.22;;;1.92;;
69795;SDS011;57073;45.650;9.612;2023-04-21T23:22:36;4.00;;;2.30;;
69795;SDS011;57073;45.650;9.612;2023-04-21T23:27:37;4.80;;;2.30;;
69795;SDS011;57073;45.650;9.612;2023-04-21T23:32:37;4.25;;;2.00;;
69795;SDS011;57073;45.650;9.612;2023-04-21T23:37:37;3.20;;;2.00;;
69795;SDS011;57073;45.650;9.612;2023-04-21T23:42:38;5.17;;;2.43;;
69795;SDS011;57073;45.650;9.612;2023-04-21T23:47:38;3.40;;;2.30;;
69795;SDS011;57073;45.650;9.612;2023-04-21T23:52:38;5.27;;;2.27;;
69795;SDS011;57073;45.650;9.612;2023-04-21T23:57:41;3.73;;;2.47;;
